createdAt,value
2019-03-21T00:00:00.343Z,32.63
2019-03-21T00:00:40.181Z,28.87
2019-03-21T00:01:14.196Z,32.98
2019-03-21T00:01:50.390Z,27.65
2019-03-21T00:02:23.412Z,29.98
2019-03-21T00:02:56.437Z,32.00
2019-03-21T00:03:29.425Z,28.80
2019-03-21T00:04:05.824Z,26.17
2019-03-21T00:04:39.482Z,35.45
2019-03-21T00:05:12.514Z,21.48
2019-03-21T00:05:45.505Z,31.05
2019-03-21T00:06:18.655Z,32.23
2019-03-21T00:06:52.160Z,32.03
2019-03-21T00:07:25.532Z,27.25
2019-03-21T00:07:58.889Z,29.85
2019-03-21T00:08:32.287Z,31.50
2019-03-21T00:09:07.985Z,31.17
2019-03-21T00:10:34.646Z,36.13
2019-03-21T00:11:43.360Z,24.98
2019-03-21T00:12:16.358Z,24.18
2019-03-21T00:12:49.729Z,31.68
2019-03-21T00:13:22.745Z,27.52
2019-03-21T00:14:06.602Z,28.83
2019-03-21T00:15:29.911Z,26.42
2019-03-21T00:16:03.127Z,32.28
2019-03-21T00:16:36.118Z,32.70
2019-03-21T00:17:09.282Z,25.82
2019-03-21T00:17:45.543Z,27.70
2019-03-21T00:18:19.021Z,32.88
2019-03-21T00:18:52.037Z,28.80
2019-03-21T00:19:25.030Z,24.40
2019-03-21T00:19:58.031Z,27.13
2019-03-21T00:20:31.039Z,29.23
2019-03-21T00:21:04.412Z,27.60
2019-03-21T00:21:38.506Z,35.45
2019-03-21T00:22:11.904Z,24.65
2019-03-21T00:22:45.021Z,27.15
2019-03-21T00:23:18.499Z,28.65
2019-03-21T00:23:51.817Z,31.10
2019-03-21T00:24:25.947Z,37.83
2019-03-21T00:24:59.313Z,34.60
2019-03-21T00:25:32.308Z,33.92
2019-03-21T00:26:05.297Z,34.80
2019-03-21T00:26:38.643Z,24.43
2019-03-21T00:27:12.031Z,30.40
2019-03-21T00:27:45.022Z,27.90
2019-03-21T00:28:18.043Z,29.30
2019-03-21T00:28:51.428Z,25.60
2019-03-21T00:29:24.409Z,35.68
2019-03-21T00:29:57.469Z,32.53
2019-03-21T00:30:30.458Z,27.05
2019-03-21T00:31:03.479Z,29.05
2019-03-21T00:31:36.598Z,26.48
2019-03-21T00:32:09.584Z,25.77
2019-03-21T00:32:42.983Z,26.25
2019-03-21T00:33:16.399Z,22.27
2019-03-21T00:33:49.419Z,27.73
2019-03-21T00:34:22.421Z,28.77
2019-03-21T00:34:55.784Z,25.40
2019-03-21T00:35:28.806Z,31.20
2019-03-21T00:36:02.196Z,35.38
2019-03-21T00:36:35.186Z,27.40
2019-03-21T00:37:08.315Z,27.67
2019-03-21T00:37:41.673Z,28.45
2019-03-21T00:38:15.070Z,30.68
2019-03-21T00:38:48.488Z,32.50
2019-03-21T00:39:32.245Z,21.02
2019-03-21T00:39:56.643Z,28.67
2019-03-21T00:40:32.375Z,27.25
2019-03-21T00:41:05.641Z,30.32
2019-03-21T00:41:39.498Z,29.70
2019-03-21T00:42:12.943Z,33.00
2019-03-21T00:42:46.011Z,25.65
2019-03-21T00:43:19.317Z,24.57
2019-03-21T00:43:52.312Z,29.27
2019-03-21T00:44:25.317Z,30.08
2019-03-21T00:44:58.323Z,28.65
2019-03-21T00:45:31.359Z,27.48
2019-03-21T00:46:04.391Z,26.62
2019-03-21T00:46:37.744Z,28.15
2019-03-21T00:47:10.744Z,26.90
2019-03-21T00:47:43.899Z,27.98
2019-03-21T00:48:18.270Z,34.35
2019-03-21T00:48:51.992Z,29.07
2019-03-21T00:49:25.377Z,26.95
2019-03-21T00:49:58.746Z,27.67
2019-03-21T00:50:32.028Z,23.02
2019-03-21T00:51:05.051Z,36.15
2019-03-21T00:51:38.074Z,26.17
2019-03-21T00:52:11.338Z,25.40
2019-03-21T00:52:45.734Z,29.32
2019-03-21T00:53:18.722Z,36.50
2019-03-21T00:53:51.732Z,29.30
2019-03-21T00:54:24.713Z,28.83
2019-03-21T00:54:58.095Z,30.35
2019-03-21T00:55:32.211Z,28.20
2019-03-21T00:56:05.211Z,36.75
2019-03-21T00:56:38.631Z,26.20
2019-03-21T00:57:11.668Z,35.20
2019-03-21T00:57:44.658Z,36.63
2019-03-21T00:58:17.658Z,29.98
2019-03-21T00:58:51.335Z,28.20
2019-03-21T00:59:24.804Z,25.27
2019-03-21T00:59:57.796Z,33.45
2019-03-21T01:00:34.211Z,30.30
2019-03-21T01:01:07.238Z,30.23
2019-03-21T01:01:40.608Z,29.92
2019-03-21T01:02:13.907Z,31.75
2019-03-21T01:02:47.219Z,27.93
2019-03-21T01:03:20.538Z,27.27
2019-03-21T01:03:53.851Z,31.65
2019-03-21T01:04:29.532Z,31.35
2019-03-21T01:05:02.553Z,28.23
2019-03-21T01:05:35.547Z,33.08
2019-03-21T01:06:08.937Z,31.85
2019-03-21T01:06:42.264Z,28.35
2019-03-21T01:07:15.254Z,28.35
2019-03-21T01:07:48.759Z,32.17
2019-03-21T01:08:21.918Z,35.80
2019-03-21T01:08:55.291Z,30.02
2019-03-21T01:09:28.309Z,40.78
2019-03-21T01:10:01.427Z,31.25
2019-03-21T01:10:34.411Z,31.97
2019-03-21T01:11:07.401Z,35.10
2019-03-21T01:11:40.403Z,31.45
2019-03-21T01:12:13.744Z,36.15
2019-03-21T01:12:47.129Z,30.55
2019-03-21T01:13:20.249Z,37.63
2019-03-21T01:13:53.278Z,37.75
2019-03-21T01:14:29.964Z,38.35
2019-03-21T01:15:01.071Z,44.60
2019-03-21T01:15:34.166Z,35.03
2019-03-21T01:16:07.176Z,30.05
2019-03-21T01:16:40.165Z,36.63
2019-03-21T01:17:13.182Z,35.48
2019-03-21T01:17:46.537Z,34.25
2019-03-21T01:18:19.526Z,35.40
2019-03-21T01:18:52.524Z,32.83
2019-03-21T01:19:25.551Z,41.10
2019-03-21T01:19:58.557Z,37.70
2019-03-21T01:20:31.913Z,41.25
2019-03-21T01:21:04.932Z,38.95
2019-03-21T01:21:38.303Z,39.27
2019-03-21T01:22:11.664Z,37.95
2019-03-21T01:22:44.665Z,38.70
2019-03-21T01:23:17.668Z,44.25
2019-03-21T01:23:50.984Z,35.03
2019-03-21T01:24:24.266Z,39.78
2019-03-21T01:24:57.286Z,43.10
2019-03-21T01:25:33.671Z,36.38
2019-03-21T01:26:06.822Z,42.27
2019-03-21T01:26:39.833Z,44.58
2019-03-21T01:27:12.818Z,41.68
2019-03-21T01:27:45.822Z,40.83
2019-03-21T01:28:19.164Z,37.90
2019-03-21T01:28:52.172Z,34.53
2019-03-21T01:29:25.444Z,37.75
2019-03-21T01:29:58.438Z,36.80
2019-03-21T01:30:31.821Z,46.83
2019-03-21T01:31:05.073Z,44.35
2019-03-21T01:31:38.074Z,38.08
2019-03-21T01:32:11.406Z,43.00
2019-03-21T01:32:47.384Z,38.48
2019-03-21T01:33:20.379Z,41.30
2019-03-21T01:33:53.642Z,47.08
2019-03-21T01:34:26.637Z,40.95
2019-03-21T01:34:59.963Z,42.33
2019-03-21T01:35:32.956Z,41.15
2019-03-21T01:36:06.320Z,42.33
2019-03-21T01:36:39.309Z,41.25
2019-03-21T01:37:12.367Z,47.38
2019-03-21T01:37:45.377Z,41.95
2019-03-21T01:38:18.378Z,44.63
2019-03-21T01:38:51.656Z,36.93
2019-03-21T01:39:24.642Z,38.75
2019-03-21T01:39:57.632Z,43.38
2019-03-21T01:40:31.519Z,39.90
2019-03-21T01:41:04.594Z,39.35
2019-03-21T01:41:38.069Z,39.58
2019-03-21T01:42:11.066Z,45.05
2019-03-21T01:42:44.068Z,37.40
2019-03-21T01:43:17.641Z,37.35
2019-03-21T01:43:50.798Z,34.80
2019-03-21T01:44:23.820Z,41.92
2019-03-21T01:44:56.824Z,41.53
2019-03-21T01:45:30.126Z,34.35
2019-03-21T01:46:05.529Z,36.95
2019-03-21T01:46:39.157Z,39.03
2019-03-21T01:47:12.471Z,36.93
2019-03-21T01:47:45.450Z,34.67
2019-03-21T01:48:18.456Z,41.08
2019-03-21T01:48:51.775Z,37.88
2019-03-21T01:49:25.134Z,34.83
2019-03-21T01:49:58.533Z,33.23
2019-03-21T01:50:31.695Z,40.48
2019-03-21T01:51:04.708Z,44.75
2019-03-21T01:51:38.391Z,36.55
2019-03-21T01:52:11.396Z,34.53
2019-03-21T01:52:44.421Z,38.38
2019-03-21T01:53:18.107Z,40.80
2019-03-21T01:53:51.550Z,39.63
2019-03-21T01:54:24.867Z,45.10
2019-03-21T01:54:57.857Z,44.93
2019-03-21T01:55:31.093Z,39.75
2019-03-21T01:56:04.425Z,40.75
2019-03-21T01:56:37.535Z,38.00
2019-03-21T01:57:10.544Z,36.63
2019-03-21T01:57:43.533Z,44.55
2019-03-21T01:58:16.897Z,35.73
2019-03-21T01:58:50.364Z,40.63
2019-03-21T01:59:23.367Z,43.17
2019-03-21T01:59:56.350Z,41.65
2019-03-21T02:00:32.076Z,41.02
2019-03-21T02:01:05.072Z,35.52
2019-03-21T02:01:38.210Z,37.38
2019-03-21T02:02:11.618Z,37.73
2019-03-21T02:02:45.366Z,43.75
2019-03-21T02:03:18.404Z,33.45
2019-03-21T02:03:51.742Z,42.00
2019-03-21T02:04:24.746Z,42.85
2019-03-21T02:04:58.102Z,35.20
2019-03-21T02:05:31.419Z,42.10
2019-03-21T02:06:04.427Z,39.53
2019-03-21T02:06:37.527Z,40.28
2019-03-21T02:07:10.522Z,41.23
2019-03-21T02:07:43.895Z,45.25
2019-03-21T02:08:16.883Z,41.40
2019-03-21T02:08:49.872Z,44.23
2019-03-21T02:09:23.544Z,46.80
2019-03-21T02:09:56.552Z,41.83
2019-03-21T02:10:30.095Z,39.40
2019-03-21T02:11:03.483Z,40.58
2019-03-21T02:11:38.785Z,39.03
2019-03-21T02:12:12.150Z,38.92
2019-03-21T02:12:45.463Z,49.67
2019-03-21T02:13:18.847Z,37.10
2019-03-21T02:13:52.167Z,39.45
2019-03-21T02:14:25.151Z,43.68
2019-03-21T02:14:58.183Z,42.67
2019-03-21T02:15:31.215Z,38.40
2019-03-21T02:16:04.221Z,39.20
2019-03-21T02:16:37.218Z,40.40
2019-03-21T02:17:10.579Z,46.83
2019-03-21T02:17:43.577Z,37.88
2019-03-21T02:18:16.562Z,40.58
2019-03-21T02:18:49.567Z,50.75
2019-03-21T02:19:22.573Z,47.90
2019-03-21T02:19:55.682Z,42.73
2019-03-21T02:20:29.017Z,39.53
2019-03-21T02:21:02.025Z,43.20
2019-03-21T02:21:35.372Z,45.90
2019-03-21T02:22:08.374Z,40.45
2019-03-21T02:22:41.739Z,38.80
2019-03-21T02:23:14.726Z,40.92
2019-03-21T02:23:48.115Z,41.55
2019-03-21T02:24:21.109Z,51.42
2019-03-21T02:24:54.115Z,43.02
2019-03-21T02:25:28.011Z,43.45
2019-03-21T02:26:01.459Z,44.63
2019-03-21T02:26:34.476Z,49.63
2019-03-21T02:27:07.466Z,38.20
2019-03-21T02:27:40.476Z,43.20
2019-03-21T02:28:13.483Z,46.42
2019-03-21T02:28:46.482Z,42.05
2019-03-21T02:29:19.485Z,42.93
2019-03-21T02:29:52.483Z,46.65
2019-03-21T02:30:27.725Z,40.83
2019-03-21T02:31:01.462Z,38.28
2019-03-21T02:31:34.499Z,42.85
2019-03-21T02:32:07.794Z,47.98
2019-03-21T02:32:40.972Z,41.68
2019-03-21T02:33:23.237Z,39.80
2019-03-21T02:33:56.849Z,39.23
2019-03-21T02:34:29.856Z,41.23
2019-03-21T02:35:02.979Z,41.40
2019-03-21T02:35:35.973Z,44.38
2019-03-21T02:36:09.078Z,37.08
2019-03-21T02:36:42.964Z,39.50
2019-03-21T02:37:16.327Z,46.60
2019-03-21T02:37:49.319Z,38.55
2019-03-21T02:38:23.215Z,43.17
2019-03-21T02:38:56.211Z,44.00
2019-03-21T02:39:29.255Z,50.92
2019-03-21T02:40:02.206Z,47.05
2019-03-21T02:40:35.193Z,36.95
2019-03-21T02:41:08.870Z,44.53
2019-03-21T02:41:41.868Z,38.55
2019-03-21T02:42:14.877Z,43.58
2019-03-21T02:42:48.861Z,40.28
2019-03-21T02:43:21.856Z,45.78
2019-03-21T02:43:55.285Z,40.40
2019-03-21T02:44:28.263Z,45.10
2019-03-21T02:45:08.297Z,39.25
2019-03-21T02:45:36.347Z,43.45
2019-03-21T02:46:09.360Z,44.45
2019-03-21T02:46:42.344Z,35.35
2019-03-21T02:47:15.353Z,48.42
2019-03-21T02:47:48.373Z,45.12
2019-03-21T02:48:21.765Z,41.70
2019-03-21T02:48:54.758Z,42.13
2019-03-21T02:49:28.107Z,41.05
2019-03-21T02:50:01.103Z,48.35
2019-03-21T02:50:34.121Z,41.37
2019-03-21T02:51:07.201Z,45.80
2019-03-21T02:51:40.508Z,40.88
2019-03-21T02:52:13.875Z,41.40
2019-03-21T02:52:46.875Z,43.90
2019-03-21T02:53:19.904Z,50.50
2019-03-21T02:53:52.904Z,41.08
2019-03-21T02:54:25.912Z,40.67
2019-03-21T02:54:59.272Z,42.75
2019-03-21T02:55:32.286Z,43.40
2019-03-21T02:56:07.188Z,42.38
2019-03-21T02:56:40.260Z,46.05
2019-03-21T02:57:13.632Z,41.80
2019-03-21T02:57:46.637Z,41.73
2019-03-21T02:58:19.631Z,42.25
2019-03-21T02:58:53.062Z,39.05
2019-03-21T02:59:26.075Z,44.98
2019-03-21T02:59:59.079Z,40.60
2019-03-21T03:00:32.477Z,46.50
2019-03-21T03:01:05.464Z,48.00
2019-03-21T03:01:38.851Z,38.60
2019-03-21T03:02:11.855Z,51.75
2019-03-21T03:02:45.478Z,43.65
2019-03-21T03:03:19.338Z,42.05
2019-03-21T03:03:53.113Z,45.15
2019-03-21T03:04:26.567Z,41.25
2019-03-21T03:05:00.076Z,38.50
2019-03-21T03:05:33.077Z,42.03
2019-03-21T03:06:06.092Z,52.17
2019-03-21T03:06:39.093Z,45.95
2019-03-21T03:07:12.079Z,47.62
2019-03-21T03:07:45.511Z,43.90
2019-03-21T03:08:18.854Z,46.42
2019-03-21T03:08:51.825Z,41.68
2019-03-21T03:09:24.835Z,39.13
2019-03-21T03:09:57.851Z,43.00
2019-03-21T03:10:33.625Z,49.05
2019-03-21T03:11:10.488Z,45.63
2019-03-21T03:11:41.564Z,45.12
2019-03-21T03:12:14.913Z,40.43
2019-03-21T03:12:47.933Z,40.73
2019-03-21T03:13:20.939Z,52.70
2019-03-21T03:13:54.105Z,49.35
2019-03-21T03:14:27.094Z,44.83
2019-03-21T03:15:00.102Z,47.70
2019-03-21T03:15:33.154Z,38.50
2019-03-21T03:16:06.164Z,42.67
2019-03-21T03:16:39.289Z,48.28
2019-03-21T03:17:12.592Z,50.78
2019-03-21T03:17:45.607Z,40.88
2019-03-21T03:18:18.962Z,43.08
2019-03-21T03:18:52.348Z,46.00
2019-03-21T03:19:25.607Z,44.80
2019-03-21T03:19:58.890Z,39.27
2019-03-21T03:20:32.299Z,45.55
2019-03-21T03:21:05.324Z,46.37
2019-03-21T03:21:38.348Z,46.45
2019-03-21T03:22:11.713Z,47.08
2019-03-21T03:22:44.705Z,54.38
2019-03-21T03:23:17.711Z,56.63
2019-03-21T03:23:50.713Z,47.80
2019-03-21T03:24:25.560Z,42.88
2019-03-21T03:24:58.941Z,47.95
2019-03-21T03:25:31.902Z,43.83
2019-03-21T03:26:04.914Z,45.73
2019-03-21T03:26:37.920Z,41.40
2019-03-21T03:27:11.179Z,50.15
2019-03-21T03:27:45.203Z,42.78
2019-03-21T03:28:20.338Z,51.10
2019-03-21T03:28:53.768Z,49.45
2019-03-21T03:29:27.129Z,46.33
2019-03-21T03:30:00.557Z,49.25
2019-03-21T03:30:33.877Z,43.63
2019-03-21T03:31:06.866Z,43.15
2019-03-21T03:31:40.253Z,45.80
2019-03-21T03:32:13.295Z,43.42
2019-03-21T03:32:46.296Z,44.75
2019-03-21T03:33:19.298Z,47.40
2019-03-21T03:33:52.329Z,44.70
2019-03-21T03:34:26.165Z,46.80
2019-03-21T03:34:59.146Z,45.03
2019-03-21T03:35:32.155Z,47.03
2019-03-21T03:36:05.469Z,48.42
2019-03-21T03:36:38.475Z,46.13
2019-03-21T03:37:12.507Z,40.05
2019-03-21T03:37:45.562Z,45.28
2019-03-21T03:38:18.564Z,44.80
2019-03-21T03:38:52.546Z,43.90
2019-03-21T03:39:25.866Z,43.52
2019-03-21T03:39:59.266Z,50.25
2019-03-21T03:40:35.791Z,50.65
2019-03-21T03:41:09.359Z,44.45
2019-03-21T03:41:42.652Z,48.25
2019-03-21T03:42:15.636Z,43.25
2019-03-21T03:42:48.640Z,47.00
2019-03-21T03:43:21.983Z,48.28
2019-03-21T03:43:54.990Z,49.75
2019-03-21T03:44:28.003Z,48.35
2019-03-21T03:45:00.998Z,47.33
2019-03-21T03:45:37.796Z,42.75
2019-03-21T03:46:09.371Z,42.50
2019-03-21T03:46:42.386Z,46.73
2019-03-21T03:47:15.655Z,43.90
2019-03-21T03:47:48.654Z,50.23
2019-03-21T03:48:21.903Z,55.65
2019-03-21T03:48:54.933Z,59.85
2019-03-21T03:49:28.404Z,49.33
2019-03-21T03:50:01.387Z,51.50
2019-03-21T03:50:34.388Z,45.25
2019-03-21T03:51:07.724Z,44.40
2019-03-21T03:51:41.079Z,52.40
2019-03-21T03:52:14.071Z,54.18
2019-03-21T03:52:47.080Z,59.90
2019-03-21T03:53:20.103Z,52.15
2019-03-21T03:53:53.092Z,47.48
2019-03-21T03:54:26.403Z,50.28
2019-03-21T03:54:59.394Z,52.43
2019-03-21T03:55:32.840Z,48.65
2019-03-21T03:56:05.831Z,53.58
2019-03-21T03:56:38.839Z,52.00
2019-03-21T03:57:11.845Z,55.67
2019-03-21T03:57:45.293Z,47.53
2019-03-21T03:58:19.184Z,46.88
2019-03-21T03:58:52.769Z,53.65
2019-03-21T03:59:25.789Z,48.95
2019-03-21T03:59:59.152Z,49.60
2019-03-21T04:00:32.256Z,54.65
2019-03-21T04:01:05.614Z,47.98
2019-03-21T04:01:38.930Z,50.33
2019-03-21T04:02:11.915Z,54.70
2019-03-21T04:02:46.247Z,50.98
2019-03-21T04:03:19.260Z,65.12
2019-03-21T04:03:52.669Z,50.48
2019-03-21T04:04:25.675Z,43.92
2019-03-21T04:04:58.664Z,51.02
2019-03-21T04:05:31.957Z,57.03
2019-03-21T04:06:05.437Z,51.88
2019-03-21T04:06:38.434Z,43.58
2019-03-21T04:07:11.440Z,45.28
2019-03-21T04:07:44.500Z,50.03
2019-03-21T04:08:18.147Z,53.42
2019-03-21T04:08:51.346Z,44.05
2019-03-21T04:09:24.727Z,47.20
2019-03-21T04:09:57.831Z,50.10
2019-03-21T04:10:33.218Z,53.52
2019-03-21T04:11:06.353Z,52.27
2019-03-21T04:11:39.883Z,42.73
2019-03-21T04:12:12.984Z,42.70
2019-03-21T04:13:05.631Z,53.25
2019-03-21T04:13:38.640Z,53.65
2019-03-21T04:14:12.000Z,51.05
2019-03-21T04:14:45.000Z,50.10
2019-03-21T04:15:18.002Z,47.88
2019-03-21T04:15:53.202Z,56.98
2019-03-21T04:16:25.868Z,52.80
2019-03-21T04:16:58.893Z,52.45
2019-03-21T04:17:31.907Z,51.73
2019-03-21T04:18:05.324Z,46.33
2019-03-21T04:18:38.645Z,54.48
2019-03-21T04:19:12.026Z,52.48
2019-03-21T04:19:45.431Z,52.75
2019-03-21T04:20:19.597Z,49.83
2019-03-21T04:20:53.227Z,52.98
2019-03-21T04:21:26.235Z,47.60
2019-03-21T04:22:00.026Z,53.95
2019-03-21T04:22:33.341Z,52.03
2019-03-21T04:23:06.355Z,48.42
2019-03-21T04:23:39.379Z,49.18
2019-03-21T04:24:12.388Z,59.55
2019-03-21T04:24:45.920Z,48.25
2019-03-21T04:25:22.412Z,53.78
2019-03-21T04:25:59.079Z,47.88
2019-03-21T04:26:32.701Z,50.38
2019-03-21T04:27:07.264Z,59.58
2019-03-21T04:27:41.445Z,46.98
2019-03-21T04:28:15.725Z,52.53
2019-03-21T04:28:48.951Z,56.98
2019-03-21T04:29:21.978Z,54.60
2019-03-21T04:29:54.988Z,54.77
2019-03-21T04:30:28.020Z,52.23
2019-03-21T04:31:01.048Z,46.92
2019-03-21T04:31:34.062Z,52.98
2019-03-21T04:32:07.075Z,45.78
2019-03-21T04:32:40.409Z,59.75
2019-03-21T04:33:13.541Z,52.27
2019-03-21T04:33:46.593Z,52.93
2019-03-21T04:34:19.622Z,46.25
2019-03-21T04:34:52.626Z,53.40
2019-03-21T04:35:25.639Z,47.58
2019-03-21T04:35:58.664Z,53.98
2019-03-21T04:36:31.680Z,49.05
2019-03-21T04:37:04.966Z,56.92
2019-03-21T04:37:37.993Z,57.73
2019-03-21T04:38:11.767Z,58.65
2019-03-21T04:38:44.799Z,56.18
2019-03-21T04:39:18.235Z,50.17
2019-03-21T04:39:52.150Z,63.28
2019-03-21T04:40:25.176Z,63.83
2019-03-21T04:40:58.886Z,52.50
2019-03-21T04:41:32.283Z,53.90
2019-03-21T04:42:06.412Z,53.17
2019-03-21T04:52:28.242Z,49.50
2019-03-21T04:53:01.268Z,52.55
2019-03-21T04:53:34.827Z,46.30
2019-03-21T04:54:08.190Z,50.35
2019-03-21T04:54:41.207Z,50.43
2019-03-21T04:55:14.331Z,51.25
2019-03-21T04:55:47.355Z,62.27
2019-03-21T04:56:20.720Z,51.00
2019-03-21T04:56:53.739Z,57.73
2019-03-21T04:57:26.739Z,49.80
2019-03-21T04:57:59.820Z,48.02
2019-03-21T04:58:33.196Z,48.40
2019-03-21T04:59:06.252Z,49.18
2019-03-21T04:59:39.253Z,46.92
2019-03-21T05:00:15.367Z,58.42
2019-03-21T05:00:48.779Z,50.63
2019-03-21T05:01:21.789Z,48.95
2019-03-21T05:01:54.792Z,54.30
2019-03-21T05:02:27.790Z,57.60
2019-03-21T05:03:01.818Z,64.97
2019-03-21T05:03:35.579Z,52.93
2019-03-21T05:04:08.588Z,61.98
2019-03-21T05:04:41.872Z,52.85
2019-03-21T05:05:14.917Z,56.53
2019-03-21T05:05:47.936Z,50.88
2019-03-21T05:06:20.952Z,52.17
2019-03-21T05:06:53.980Z,50.67
2019-03-21T05:07:26.999Z,55.63
2019-03-21T05:08:00.024Z,58.00
2019-03-21T05:08:33.488Z,48.50
2019-03-21T05:09:09.536Z,55.48
2019-03-21T05:09:42.554Z,61.65
2019-03-21T05:10:15.634Z,57.50
2019-03-21T05:10:49.082Z,56.77
2019-03-21T05:11:22.098Z,57.17
2019-03-21T05:11:55.531Z,54.88
2019-03-21T05:12:28.560Z,59.65
2019-03-21T05:13:02.034Z,53.38
2019-03-21T05:13:35.341Z,53.92
2019-03-21T05:14:08.728Z,55.43
2019-03-21T05:14:41.770Z,55.10
2019-03-21T05:15:20.339Z,55.75
2019-03-21T05:15:53.354Z,52.88
2019-03-21T05:16:26.376Z,58.40
2019-03-21T05:16:59.762Z,58.25
2019-03-21T05:17:33.110Z,60.55
2019-03-21T05:18:15.286Z,51.92
2019-03-21T05:18:48.665Z,52.78
2019-03-21T05:19:21.682Z,56.35
2019-03-21T05:19:54.724Z,57.45
2019-03-21T05:20:27.927Z,50.55
2019-03-21T05:21:01.004Z,66.87
2019-03-21T05:21:34.020Z,58.00
2019-03-21T05:22:07.361Z,68.35
2019-03-21T05:22:40.630Z,57.85
2019-03-21T05:23:14.842Z,56.42
2019-03-21T05:23:48.273Z,60.88
2019-03-21T05:24:21.373Z,56.42
2019-03-21T05:24:54.379Z,58.35
2019-03-21T05:25:27.443Z,60.23
2019-03-21T05:26:00.468Z,65.30
2019-03-21T05:26:33.816Z,53.95
2019-03-21T05:27:06.851Z,65.97
2019-03-21T05:27:42.344Z,67.87
2019-03-21T05:28:15.690Z,61.28
2019-03-21T05:28:48.714Z,61.88
2019-03-21T05:29:21.776Z,55.67
2019-03-21T05:29:54.811Z,63.23
2019-03-21T05:30:31.856Z,60.48
2019-03-21T05:31:09.175Z,55.43
2019-03-21T05:31:42.186Z,53.63
2019-03-21T05:32:15.205Z,65.57
2019-03-21T05:32:48.229Z,57.08
2019-03-21T05:33:21.685Z,58.85
2019-03-21T05:33:54.712Z,62.80
2019-03-21T05:34:27.736Z,67.20
2019-03-21T05:35:01.013Z,63.95
2019-03-21T05:35:34.042Z,61.20
2019-03-21T05:36:07.088Z,58.52
2019-03-21T05:36:40.236Z,56.77
2019-03-21T05:37:13.600Z,67.47
2019-03-21T05:37:46.774Z,68.60
2019-03-21T05:38:19.783Z,63.65
2019-03-21T05:38:52.813Z,54.98
2019-03-21T05:39:25.828Z,61.35
2019-03-21T05:39:59.170Z,64.05
2019-03-21T05:40:32.550Z,64.70
2019-03-21T05:41:05.563Z,61.33
2019-03-21T05:41:38.636Z,59.90
2019-03-21T05:42:16.054Z,65.05
2019-03-21T05:42:56.087Z,52.43
2019-03-21T05:43:32.986Z,59.58
2019-03-21T05:44:37.192Z,55.70
2019-03-21T05:45:11.082Z,60.65
2019-03-21T05:45:44.103Z,53.85
2019-03-21T05:46:26.496Z,64.97
2019-03-21T05:46:53.160Z,60.25
2019-03-21T05:47:26.174Z,59.00
2019-03-21T05:47:59.473Z,57.93
2019-03-21T05:48:32.490Z,59.05
2019-03-21T05:49:05.508Z,62.62
2019-03-21T05:49:38.527Z,63.05
2019-03-21T05:50:14.970Z,57.98
2019-03-21T05:50:48.024Z,63.10
2019-03-21T05:51:21.056Z,65.75
2019-03-21T05:51:54.076Z,57.80
2019-03-21T05:52:27.524Z,67.12
2019-03-21T05:53:00.820Z,63.42
2019-03-21T05:53:34.587Z,60.90
2019-03-21T05:54:07.590Z,56.83
2019-03-21T05:54:40.598Z,59.45
2019-03-21T05:55:13.632Z,55.00
2019-03-21T05:55:46.643Z,63.95
2019-03-21T05:56:19.969Z,62.17
2019-03-21T05:56:52.971Z,57.90
2019-03-21T05:57:26.322Z,65.00
2019-03-21T05:58:00.017Z,54.08
2019-03-21T05:58:33.037Z,56.30
2019-03-21T05:59:06.055Z,63.10
2019-03-21T05:59:39.184Z,66.55
2019-03-21T06:00:16.356Z,63.92
2019-03-21T06:00:51.411Z,63.13
2019-03-21T06:01:24.812Z,64.47
2019-03-21T06:01:58.132Z,53.92
2019-03-21T06:02:31.152Z,61.23
2019-03-21T06:03:05.704Z,52.55
2019-03-21T06:03:48.874Z,56.40
2019-03-21T06:04:21.896Z,58.33
2019-03-21T06:04:54.914Z,59.83
2019-03-21T06:05:28.212Z,60.80
2019-03-21T06:06:09.068Z,70.15
2019-03-21T06:06:53.725Z,51.30
2019-03-21T06:07:43.072Z,65.72
2019-03-21T06:08:25.793Z,64.27
2019-03-21T06:08:58.799Z,76.72
2019-03-21T06:09:31.818Z,71.07
2019-03-21T06:10:07.646Z,52.93
2019-03-21T06:10:41.064Z,55.85
2019-03-21T06:11:14.543Z,59.15
2019-03-21T06:11:51.505Z,52.00
2019-03-21T06:12:24.529Z,57.20
2019-03-21T06:12:57.655Z,52.55
2019-03-21T06:13:30.706Z,67.70
2019-03-21T06:14:03.783Z,56.50
2019-03-21T06:14:39.275Z,66.75
2019-03-21T06:15:13.909Z,55.03
2019-03-21T06:15:46.927Z,60.35
2019-03-21T06:16:19.956Z,62.93
2019-03-21T06:16:53.316Z,52.38
2019-03-21T06:17:26.860Z,58.23
2019-03-21T06:18:53.205Z,64.30
2019-03-21T06:19:42.654Z,50.95
2019-03-21T06:20:26.466Z,54.65
2019-03-21T06:21:19.811Z,61.88
2019-03-21T06:22:32.407Z,57.25
2019-03-21T06:23:33.239Z,60.55
2019-03-21T06:24:29.684Z,51.18
2019-03-21T06:25:56.352Z,63.80
2019-03-21T06:26:39.098Z,49.80
2019-03-21T06:27:29.656Z,61.80
2019-03-21T06:28:02.975Z,50.78
2019-03-21T06:28:35.990Z,51.77
2019-03-21T06:29:08.999Z,58.48
2019-03-21T06:29:42.105Z,46.85
2019-03-21T06:30:15.387Z,57.27
2019-03-21T06:30:48.819Z,55.78
2019-03-21T06:31:21.836Z,55.70
2019-03-21T06:31:55.644Z,58.58
2019-03-21T06:32:28.811Z,55.80
2019-03-21T06:33:02.101Z,62.98
2019-03-21T06:33:35.257Z,59.55
2019-03-21T06:34:08.267Z,61.13
2019-03-21T06:34:41.299Z,53.20
2019-03-21T06:35:23.502Z,58.70
2019-03-21T06:35:57.246Z,53.48
2019-03-21T06:36:30.238Z,48.38
2019-03-21T06:37:03.678Z,57.60
2019-03-21T06:37:37.066Z,55.45
2019-03-21T06:38:10.828Z,53.13
2019-03-21T06:38:43.835Z,60.83
2019-03-21T06:39:17.193Z,57.62
2019-03-21T06:39:50.870Z,56.33
2019-03-21T06:40:23.888Z,61.05
2019-03-21T06:40:57.226Z,55.52
2019-03-21T06:41:31.214Z,62.73
2019-03-21T06:42:04.232Z,58.40
2019-03-21T06:42:39.048Z,54.25
2019-03-21T06:43:12.068Z,55.83
2019-03-21T06:43:45.084Z,57.55
2019-03-21T06:44:18.121Z,53.78
2019-03-21T06:44:51.564Z,49.65
2019-03-21T06:45:24.570Z,50.03
2019-03-21T06:45:58.048Z,47.38
2019-03-21T06:46:31.083Z,58.17
2019-03-21T06:47:04.549Z,62.10
2019-03-21T06:47:37.568Z,55.48
2019-03-21T06:48:10.580Z,51.33
2019-03-21T06:48:43.592Z,50.30
2019-03-21T06:49:16.607Z,52.88
2019-03-21T06:49:49.628Z,55.45
2019-03-21T06:50:23.001Z,52.65
2019-03-21T06:50:56.012Z,57.15
2019-03-21T06:51:29.006Z,50.12
2019-03-21T06:52:02.066Z,54.73
2019-03-21T06:52:35.446Z,65.78
2019-03-21T06:53:08.817Z,59.25
2019-03-21T06:53:42.182Z,49.80
2019-03-21T06:54:15.209Z,58.73
2019-03-21T06:54:48.232Z,55.52
2019-03-21T06:55:21.242Z,54.88
2019-03-21T06:55:54.254Z,50.25
2019-03-21T06:56:27.272Z,61.98
2019-03-21T06:57:02.628Z,52.55
2019-03-21T06:57:35.908Z,51.25
2019-03-21T06:58:09.050Z,55.85
2019-03-21T06:58:42.063Z,50.08
2019-03-21T06:59:15.886Z,60.60
2019-03-21T06:59:49.283Z,61.40
2019-03-21T07:00:24.824Z,52.55
2019-03-21T07:00:57.127Z,59.95
2019-03-21T07:01:30.148Z,43.63
2019-03-21T07:02:03.174Z,53.68
2019-03-21T07:02:36.175Z,50.73
2019-03-21T07:03:09.228Z,56.33
2019-03-21T07:03:42.302Z,61.08
2019-03-21T07:04:15.336Z,57.30
2019-03-21T07:04:48.361Z,59.18
2019-03-21T07:05:21.362Z,52.55
2019-03-21T07:05:54.745Z,51.75
2019-03-21T07:06:27.764Z,48.40
2019-03-21T07:07:08.212Z,55.63
2019-03-21T07:07:35.591Z,53.42
2019-03-21T07:08:09.008Z,56.68
2019-03-21T07:08:42.432Z,53.52
2019-03-21T07:09:15.450Z,54.13
2019-03-21T07:09:48.460Z,58.85
2019-03-21T07:10:21.834Z,51.10
2019-03-21T07:10:54.859Z,62.78
2019-03-21T07:11:27.866Z,55.20
2019-03-21T07:12:00.878Z,50.38
2019-03-21T07:12:33.895Z,56.50
2019-03-21T07:13:06.919Z,52.58
2019-03-21T07:13:39.923Z,49.98
2019-03-21T07:14:13.394Z,55.45
2019-03-21T07:14:46.853Z,51.63
2019-03-21T07:15:19.865Z,50.65
2019-03-21T07:15:52.896Z,64.97
2019-03-21T07:16:26.268Z,49.80
2019-03-21T07:17:00.659Z,51.35
2019-03-21T07:17:34.748Z,50.10
2019-03-21T07:18:07.762Z,52.65
2019-03-21T07:18:41.510Z,56.05
2019-03-21T07:19:14.634Z,55.55
2019-03-21T07:19:47.675Z,60.65
2019-03-21T07:20:20.836Z,52.55
2019-03-21T07:20:55.019Z,53.00
2019-03-21T07:21:28.024Z,54.58
2019-03-21T07:22:01.408Z,59.00
2019-03-21T07:22:34.432Z,53.25
2019-03-21T07:23:07.455Z,50.83
2019-03-21T07:23:40.885Z,49.20
2019-03-21T07:24:14.338Z,53.33
2019-03-21T07:24:47.375Z,60.95
2019-03-21T07:25:20.524Z,58.58
2019-03-21T07:25:53.884Z,50.73
2019-03-21T07:26:26.925Z,51.50
2019-03-21T07:26:59.952Z,55.65
2019-03-21T07:27:33.531Z,52.45
2019-03-21T07:28:06.554Z,47.35
2019-03-21T07:28:39.950Z,53.00